<?xml version="1.0" encoding="UTF-8" standalone="no" ?>
<gpx xmlns="http://www.topografix.com/GPX/1/1" xmlns:xsi="http://www.w3.org/2001/XMLSchema-instance" xsi:schemaLocation="http://www.topografix.com/GPX/1/1 http://www.topografix.com/GPX/1/1/gpx.xsd" version="1.1" creator="VisuGPX - https://www.visugpx.com">
  <metadata>
    <name>Raccord Le Bouxes / La Combe / La Millière</name>
    <desc><![CDATA[Propre
Un gros portage après avoir quitté Le Bouxes .
Deux ou trois petits portages / poussage après avoir quitté La Combe]]></desc>
  </metadata>
  <trk>
    <name><![CDATA[Raccord Le Bouxes / La Combe / La Millière_1]]></name>
    <trkseg>
      <trkpt lat="44.14083" lon="3.20233">
        <ele>789.2</ele>
        <time>2024-12-04T11:43:32.000Z</time>
      </trkpt>
      <trkpt lat="44.14082" lon="3.20255">
        <ele>788.3</ele>
        <time>2024-12-04T11:43:44.000Z</time>
      </trkpt>
      <trkpt lat="44.14089" lon="3.20265">
        <ele>787.7</ele>
        <time>2024-12-04T11:43:51.000Z</time>
      </trkpt>
      <trkpt lat="44.14097" lon="3.20274">
        <ele>786.6</ele>
        <time>2024-12-04T11:43:58.000Z</time>
      </trkpt>
      <trkpt lat="44.14103" lon="3.20284">
        <ele>785.2</ele>
        <time>2024-12-04T11:44:03.000Z</time>
      </trkpt>
      <trkpt lat="44.141" lon="3.20299">
        <ele>784.2</ele>
        <time>2024-12-04T11:44:07.000Z</time>
      </trkpt>
      <trkpt lat="44.14094" lon="3.2031">
        <ele>782.3</ele>
        <time>2024-12-04T11:44:14.000Z</time>
      </trkpt>
      <trkpt lat="44.14081" lon="3.20315">
        <ele>780.7</ele>
        <time>2024-12-04T11:44:23.000Z</time>
      </trkpt>
      <trkpt lat="44.14071" lon="3.2031">
        <ele>780</ele>
        <time>2024-12-04T11:44:27.000Z</time>
      </trkpt>
      <trkpt lat="44.14063" lon="3.20301">
        <ele>779.9</ele>
        <time>2024-12-04T11:44:32.000Z</time>
      </trkpt>
      <trkpt lat="44.14054" lon="3.203">
        <ele>780.9</ele>
        <time>2024-12-04T11:44:44.000Z</time>
      </trkpt>
      <trkpt lat="44.14049" lon="3.20313">
        <ele>783.6</ele>
        <time>2024-12-04T11:45:07.000Z</time>
      </trkpt>
      <trkpt lat="44.14055" lon="3.20323">
        <ele>783.4</ele>
        <time>2024-12-04T11:45:11.000Z</time>
      </trkpt>
      <trkpt lat="44.14058" lon="3.20341">
        <ele>782.6</ele>
        <time>2024-12-04T11:45:16.000Z</time>
      </trkpt>
      <trkpt lat="44.14062" lon="3.20354">
        <ele>782</ele>
        <time>2024-12-04T11:45:19.000Z</time>
      </trkpt>
      <trkpt lat="44.14071" lon="3.20362">
        <ele>780.8</ele>
        <time>2024-12-04T11:45:23.000Z</time>
      </trkpt>
      <trkpt lat="44.14076" lon="3.20351">
        <ele>778.9</ele>
        <time>2024-12-04T11:45:28.000Z</time>
      </trkpt>
      <trkpt lat="44.14087" lon="3.20353">
        <ele>776</ele>
        <time>2024-12-04T11:45:34.000Z</time>
      </trkpt>
      <trkpt lat="44.14094" lon="3.20363">
        <ele>774.2</ele>
        <time>2024-12-04T11:45:38.000Z</time>
      </trkpt>
      <trkpt lat="44.1409" lon="3.20376">
        <ele>772.1</ele>
        <time>2024-12-04T11:45:43.000Z</time>
      </trkpt>
      <trkpt lat="44.14086" lon="3.20388">
        <ele>770.3</ele>
        <time>2024-12-04T11:45:49.000Z</time>
      </trkpt>
      <trkpt lat="44.14084" lon="3.204">
        <ele>769.7</ele>
        <time>2024-12-04T11:45:56.000Z</time>
      </trkpt>
      <trkpt lat="44.14075" lon="3.20401">
        <ele>767.7</ele>
        <time>2024-12-04T11:46:22.000Z</time>
      </trkpt>
      <trkpt lat="44.14076" lon="3.20414">
        <ele>767.5</ele>
        <time>2024-12-04T11:46:28.000Z</time>
      </trkpt>
      <trkpt lat="44.14068" lon="3.20425">
        <ele>767.8</ele>
        <time>2024-12-04T11:46:32.000Z</time>
      </trkpt>
      <trkpt lat="44.14066" lon="3.20439">
        <ele>768.2</ele>
        <time>2024-12-04T11:46:38.000Z</time>
      </trkpt>
      <trkpt lat="44.14066" lon="3.20452">
        <ele>768.5</ele>
        <time>2024-12-04T11:46:44.000Z</time>
      </trkpt>
      <trkpt lat="44.14065" lon="3.20465">
        <ele>769.6</ele>
        <time>2024-12-04T11:46:52.000Z</time>
      </trkpt>
      <trkpt lat="44.14063" lon="3.20478">
        <ele>770.5</ele>
        <time>2024-12-04T11:46:59.000Z</time>
      </trkpt>
      <trkpt lat="44.14058" lon="3.20489">
        <ele>771</ele>
        <time>2024-12-04T11:47:10.000Z</time>
      </trkpt>
      <trkpt lat="44.14057" lon="3.20505">
        <ele>771</ele>
        <time>2024-12-04T11:47:16.000Z</time>
      </trkpt>
      <trkpt lat="44.14054" lon="3.20519">
        <ele>770.8</ele>
        <time>2024-12-04T11:47:19.000Z</time>
      </trkpt>
      <trkpt lat="44.14053" lon="3.20535">
        <ele>770</ele>
        <time>2024-12-04T11:47:22.000Z</time>
      </trkpt>
      <trkpt lat="44.1405" lon="3.20547">
        <ele>768.7</ele>
        <time>2024-12-04T11:47:26.000Z</time>
      </trkpt>
      <trkpt lat="44.14048" lon="3.20562">
        <ele>766.6</ele>
        <time>2024-12-04T11:47:31.000Z</time>
      </trkpt>
      <trkpt lat="44.14043" lon="3.20573">
        <ele>765.2</ele>
        <time>2024-12-04T11:47:34.000Z</time>
      </trkpt>
      <trkpt lat="44.14037" lon="3.20586">
        <ele>763</ele>
        <time>2024-12-04T11:47:38.000Z</time>
      </trkpt>
      <trkpt lat="44.14032" lon="3.20602">
        <ele>760.6</ele>
        <time>2024-12-04T11:47:42.000Z</time>
      </trkpt>
      <trkpt lat="44.14026" lon="3.20612">
        <ele>759.3</ele>
        <time>2024-12-04T11:47:44.000Z</time>
      </trkpt>
      <trkpt lat="44.14021" lon="3.20624">
        <ele>757.3</ele>
        <time>2024-12-04T11:47:47.000Z</time>
      </trkpt>
      <trkpt lat="44.14018" lon="3.20635">
        <ele>755.3</ele>
        <time>2024-12-04T11:47:50.000Z</time>
      </trkpt>
      <trkpt lat="44.14015" lon="3.20648">
        <ele>752.4</ele>
        <time>2024-12-04T11:47:54.000Z</time>
      </trkpt>
      <trkpt lat="44.14011" lon="3.20662">
        <ele>749.4</ele>
        <time>2024-12-04T11:47:58.000Z</time>
      </trkpt>
      <trkpt lat="44.1401" lon="3.20675">
        <ele>746.8</ele>
        <time>2024-12-04T11:48:01.000Z</time>
      </trkpt>
      <trkpt lat="44.14002" lon="3.20683">
        <ele>743.9</ele>
        <time>2024-12-04T11:48:05.000Z</time>
      </trkpt>
      <trkpt lat="44.13996" lon="3.20696">
        <ele>741.3</ele>
        <time>2024-12-04T11:48:09.000Z</time>
      </trkpt>
      <trkpt lat="44.13996" lon="3.20711">
        <ele>737.7</ele>
        <time>2024-12-04T11:48:13.000Z</time>
      </trkpt>
      <trkpt lat="44.13997" lon="3.20724">
        <ele>733.7</ele>
        <time>2024-12-04T11:48:18.000Z</time>
      </trkpt>
      <trkpt lat="44.14004" lon="3.20732">
        <ele>728.9</ele>
        <time>2024-12-04T11:48:24.000Z</time>
      </trkpt>
      <trkpt lat="44.1401" lon="3.20745">
        <ele>723</ele>
        <time>2024-12-04T11:48:31.000Z</time>
      </trkpt>
      <trkpt lat="44.14014" lon="3.20757">
        <ele>719.7</ele>
        <time>2024-12-04T11:48:35.000Z</time>
      </trkpt>
      <trkpt lat="44.14019" lon="3.20772">
        <ele>716.6</ele>
        <time>2024-12-04T11:48:39.000Z</time>
      </trkpt>
      <trkpt lat="44.14024" lon="3.20783">
        <ele>714.3</ele>
        <time>2024-12-04T11:48:42.000Z</time>
      </trkpt>
      <trkpt lat="44.14034" lon="3.20783">
        <ele>710.2</ele>
        <time>2024-12-04T11:48:49.000Z</time>
      </trkpt>
      <trkpt lat="44.14033" lon="3.20799">
        <ele>708</ele>
        <time>2024-12-04T11:48:53.000Z</time>
      </trkpt>
      <trkpt lat="44.1403" lon="3.20813">
        <ele>706.1</ele>
        <time>2024-12-04T11:48:56.000Z</time>
      </trkpt>
      <trkpt lat="44.14036" lon="3.20824">
        <ele>702.2</ele>
        <time>2024-12-04T11:49:03.000Z</time>
      </trkpt>
      <trkpt lat="44.14041" lon="3.20836">
        <ele>700.6</ele>
        <time>2024-12-04T11:49:07.000Z</time>
      </trkpt>
      <trkpt lat="44.14035" lon="3.20852">
        <ele>699.2</ele>
        <time>2024-12-04T11:49:11.000Z</time>
      </trkpt>
      <trkpt lat="44.14027" lon="3.2086">
        <ele>698</ele>
        <time>2024-12-04T11:49:14.000Z</time>
      </trkpt>
      <trkpt lat="44.1402" lon="3.20872">
        <ele>696.5</ele>
        <time>2024-12-04T11:49:18.000Z</time>
      </trkpt>
      <trkpt lat="44.14014" lon="3.20887">
        <ele>695.6</ele>
        <time>2024-12-04T11:49:21.000Z</time>
      </trkpt>
      <trkpt lat="44.14006" lon="3.20902">
        <ele>694.7</ele>
        <time>2024-12-04T11:49:24.000Z</time>
      </trkpt>
      <trkpt lat="44.13999" lon="3.20911">
        <ele>694.1</ele>
        <time>2024-12-04T11:49:26.000Z</time>
      </trkpt>
      <trkpt lat="44.13991" lon="3.20919">
        <ele>693.6</ele>
        <time>2024-12-04T11:49:28.000Z</time>
      </trkpt>
      <trkpt lat="44.13979" lon="3.20924">
        <ele>692.8</ele>
        <time>2024-12-04T11:49:31.000Z</time>
      </trkpt>
      <trkpt lat="44.13969" lon="3.2093">
        <ele>692.4</ele>
        <time>2024-12-04T11:49:33.000Z</time>
      </trkpt>
      <trkpt lat="44.13954" lon="3.20936">
        <ele>691.9</ele>
        <time>2024-12-04T11:49:35.000Z</time>
      </trkpt>
      <trkpt lat="44.13942" lon="3.20949">
        <ele>691.4</ele>
        <time>2024-12-04T11:49:37.000Z</time>
      </trkpt>
      <trkpt lat="44.13935" lon="3.20959">
        <ele>690.7</ele>
        <time>2024-12-04T11:49:39.000Z</time>
      </trkpt>
      <trkpt lat="44.13929" lon="3.20971">
        <ele>690.2</ele>
        <time>2024-12-04T11:49:41.000Z</time>
      </trkpt>
      <trkpt lat="44.13922" lon="3.20983">
        <ele>689.5</ele>
        <time>2024-12-04T11:49:44.000Z</time>
      </trkpt>
      <trkpt lat="44.13916" lon="3.20992">
        <ele>688.6</ele>
        <time>2024-12-04T11:49:50.000Z</time>
      </trkpt>
      <trkpt lat="44.13905" lon="3.20996">
        <ele>688</ele>
        <time>2024-12-04T11:49:58.000Z</time>
      </trkpt>
      <trkpt lat="44.13897" lon="3.21003">
        <ele>687.9</ele>
        <time>2024-12-04T11:50:01.000Z</time>
      </trkpt>
      <trkpt lat="44.13887" lon="3.21014">
        <ele>687.3</ele>
        <time>2024-12-04T11:50:04.000Z</time>
      </trkpt>
      <trkpt lat="44.13878" lon="3.21018">
        <ele>686.7</ele>
        <time>2024-12-04T11:50:06.000Z</time>
      </trkpt>
      <trkpt lat="44.13865" lon="3.21014">
        <ele>685.7</ele>
        <time>2024-12-04T11:50:09.000Z</time>
      </trkpt>
      <trkpt lat="44.13857" lon="3.21008">
        <ele>685</ele>
        <time>2024-12-04T11:50:11.000Z</time>
      </trkpt>
      <trkpt lat="44.13846" lon="3.20999">
        <ele>684</ele>
        <time>2024-12-04T11:50:14.000Z</time>
      </trkpt>
      <trkpt lat="44.13838" lon="3.20993">
        <ele>683.2</ele>
        <time>2024-12-04T11:50:17.000Z</time>
      </trkpt>
      <trkpt lat="44.1383" lon="3.21001">
        <ele>682.5</ele>
        <time>2024-12-04T11:50:20.000Z</time>
      </trkpt>
      <trkpt lat="44.13821" lon="3.21011">
        <ele>682</ele>
        <time>2024-12-04T11:50:22.000Z</time>
      </trkpt>
      <trkpt lat="44.13812" lon="3.21021">
        <ele>681.4</ele>
        <time>2024-12-04T11:50:24.000Z</time>
      </trkpt>
      <trkpt lat="44.13803" lon="3.21026">
        <ele>680.5</ele>
        <time>2024-12-04T11:50:26.000Z</time>
      </trkpt>
      <trkpt lat="44.13794" lon="3.21024">
        <ele>679.7</ele>
        <time>2024-12-04T11:50:28.000Z</time>
      </trkpt>
      <trkpt lat="44.13788" lon="3.21013">
        <ele>678.4</ele>
        <time>2024-12-04T11:50:32.000Z</time>
      </trkpt>
      <trkpt lat="44.13788" lon="3.20996">
        <ele>677.4</ele>
        <time>2024-12-04T11:50:38.000Z</time>
      </trkpt>
      <trkpt lat="44.1379" lon="3.20982">
        <ele>676.9</ele>
        <time>2024-12-04T11:50:40.000Z</time>
      </trkpt>
      <trkpt lat="44.13793" lon="3.20971">
        <ele>676.3</ele>
        <time>2024-12-04T11:50:42.000Z</time>
      </trkpt>
      <trkpt lat="44.13799" lon="3.20959">
        <ele>675.4</ele>
        <time>2024-12-04T11:50:47.000Z</time>
      </trkpt>
      <trkpt lat="44.13796" lon="3.20945">
        <ele>674.9</ele>
        <time>2024-12-04T11:50:54.000Z</time>
      </trkpt>
      <trkpt lat="44.13798" lon="3.20932">
        <ele>675.1</ele>
        <time>2024-12-04T11:51:02.000Z</time>
      </trkpt>
      <trkpt lat="44.138" lon="3.2092">
        <ele>675.5</ele>
        <time>2024-12-04T11:51:09.000Z</time>
      </trkpt>
      <trkpt lat="44.138" lon="3.20907">
        <ele>676</ele>
        <time>2024-12-04T11:51:18.000Z</time>
      </trkpt>
      <trkpt lat="44.13797" lon="3.20894">
        <ele>677.1</ele>
        <time>2024-12-04T11:51:28.000Z</time>
      </trkpt>
      <trkpt lat="44.13788" lon="3.20889">
        <ele>713.7</ele>
        <time>2024-12-04T11:54:59.000Z</time>
      </trkpt>
      <trkpt lat="44.1378" lon="3.20883">
        <ele>714.3</ele>
        <time>2024-12-04T11:55:03.000Z</time>
      </trkpt>
      <trkpt lat="44.13772" lon="3.20877">
        <ele>714.9</ele>
        <time>2024-12-04T11:55:09.000Z</time>
      </trkpt>
      <trkpt lat="44.13762" lon="3.20871">
        <ele>716.5</ele>
        <time>2024-12-04T11:55:20.000Z</time>
      </trkpt>
      <trkpt lat="44.13754" lon="3.20865">
        <ele>717.9</ele>
        <time>2024-12-04T11:55:27.000Z</time>
      </trkpt>
      <trkpt lat="44.13745" lon="3.20861">
        <ele>720.2</ele>
        <time>2024-12-04T11:55:38.000Z</time>
      </trkpt>
      <trkpt lat="44.13736" lon="3.20852">
        <ele>722.4</ele>
        <time>2024-12-04T11:55:49.000Z</time>
      </trkpt>
      <trkpt lat="44.13727" lon="3.20846">
        <ele>724.5</ele>
        <time>2024-12-04T11:56:00.000Z</time>
      </trkpt>
      <trkpt lat="44.13719" lon="3.20849">
        <ele>727.5</ele>
        <time>2024-12-04T11:56:16.000Z</time>
      </trkpt>
      <trkpt lat="44.13709" lon="3.20847">
        <ele>731.5</ele>
        <time>2024-12-04T11:56:36.000Z</time>
      </trkpt>
      <trkpt lat="44.137" lon="3.20849">
        <ele>735.8</ele>
        <time>2024-12-04T11:57:04.000Z</time>
      </trkpt>
      <trkpt lat="44.1369" lon="3.20848">
        <ele>736.7</ele>
        <time>2024-12-04T11:57:12.000Z</time>
      </trkpt>
      <trkpt lat="44.13683" lon="3.20857">
        <ele>737.3</ele>
        <time>2024-12-04T11:57:20.000Z</time>
      </trkpt>
      <trkpt lat="44.13674" lon="3.20861">
        <ele>738.1</ele>
        <time>2024-12-04T11:57:27.000Z</time>
      </trkpt>
      <trkpt lat="44.13665" lon="3.20864">
        <ele>739.4</ele>
        <time>2024-12-04T11:57:35.000Z</time>
      </trkpt>
      <trkpt lat="44.13656" lon="3.20865">
        <ele>740.6</ele>
        <time>2024-12-04T11:57:44.000Z</time>
      </trkpt>
      <trkpt lat="44.13647" lon="3.20869">
        <ele>741.4</ele>
        <time>2024-12-04T11:57:52.000Z</time>
      </trkpt>
      <trkpt lat="44.13637" lon="3.20869">
        <ele>742.6</ele>
        <time>2024-12-04T11:58:01.000Z</time>
      </trkpt>
      <trkpt lat="44.13628" lon="3.20873">
        <ele>744</ele>
        <time>2024-12-04T11:58:09.000Z</time>
      </trkpt>
      <trkpt lat="44.13619" lon="3.20877">
        <ele>745</ele>
        <time>2024-12-04T11:58:15.000Z</time>
      </trkpt>
      <trkpt lat="44.1361" lon="3.2088">
        <ele>746.6</ele>
        <time>2024-12-04T11:58:23.000Z</time>
      </trkpt>
      <trkpt lat="44.13601" lon="3.20883">
        <ele>748.3</ele>
        <time>2024-12-04T11:58:31.000Z</time>
      </trkpt>
      <trkpt lat="44.13591" lon="3.20886">
        <ele>749.8</ele>
        <time>2024-12-04T11:58:39.000Z</time>
      </trkpt>
      <trkpt lat="44.13581" lon="3.20892">
        <ele>751</ele>
        <time>2024-12-04T11:58:45.000Z</time>
      </trkpt>
      <trkpt lat="44.13572" lon="3.20894">
        <ele>751.9</ele>
        <time>2024-12-04T11:58:51.000Z</time>
      </trkpt>
      <trkpt lat="44.13562" lon="3.20899">
        <ele>752.5</ele>
        <time>2024-12-04T11:58:56.000Z</time>
      </trkpt>
      <trkpt lat="44.13552" lon="3.20901">
        <ele>753</ele>
        <time>2024-12-04T11:59:02.000Z</time>
      </trkpt>
      <trkpt lat="44.13544" lon="3.20905">
        <ele>753.1</ele>
        <time>2024-12-04T11:59:08.000Z</time>
      </trkpt>
      <trkpt lat="44.13535" lon="3.20908">
        <ele>753.6</ele>
        <time>2024-12-04T11:59:13.000Z</time>
      </trkpt>
      <trkpt lat="44.13525" lon="3.20912">
        <ele>755.2</ele>
        <time>2024-12-04T11:59:22.000Z</time>
      </trkpt>
      <trkpt lat="44.13515" lon="3.20914">
        <ele>758</ele>
        <time>2024-12-04T11:59:32.000Z</time>
      </trkpt>
      <trkpt lat="44.13508" lon="3.20921">
        <ele>760.9</ele>
        <time>2024-12-04T11:59:45.000Z</time>
      </trkpt>
      <trkpt lat="44.13498" lon="3.20924">
        <ele>763.9</ele>
        <time>2024-12-04T11:59:56.000Z</time>
      </trkpt>
      <trkpt lat="44.13489" lon="3.20925">
        <ele>766</ele>
        <time>2024-12-04T12:00:07.000Z</time>
      </trkpt>
      <trkpt lat="44.1348" lon="3.20928">
        <ele>767.3</ele>
        <time>2024-12-04T12:00:16.000Z</time>
      </trkpt>
      <trkpt lat="44.1347" lon="3.20924">
        <ele>768.2</ele>
        <time>2024-12-04T12:00:23.000Z</time>
      </trkpt>
      <trkpt lat="44.1346" lon="3.20925">
        <ele>769.2</ele>
        <time>2024-12-04T12:00:31.000Z</time>
      </trkpt>
      <trkpt lat="44.13451" lon="3.20932">
        <ele>770.1</ele>
        <time>2024-12-04T12:00:38.000Z</time>
      </trkpt>
      <trkpt lat="44.13442" lon="3.20938">
        <ele>771.4</ele>
        <time>2024-12-04T12:00:46.000Z</time>
      </trkpt>
      <trkpt lat="44.13435" lon="3.20946">
        <ele>772.8</ele>
        <time>2024-12-04T12:00:55.000Z</time>
      </trkpt>
      <trkpt lat="44.13427" lon="3.20953">
        <ele>773.9</ele>
        <time>2024-12-04T12:01:03.000Z</time>
      </trkpt>
      <trkpt lat="44.13418" lon="3.2096">
        <ele>775.4</ele>
        <time>2024-12-04T12:01:12.000Z</time>
      </trkpt>
      <trkpt lat="44.1341" lon="3.20965">
        <ele>777.1</ele>
        <time>2024-12-04T12:01:21.000Z</time>
      </trkpt>
      <trkpt lat="44.13404" lon="3.20975">
        <ele>778</ele>
        <time>2024-12-04T12:01:26.000Z</time>
      </trkpt>
      <trkpt lat="44.13397" lon="3.20984">
        <ele>778.8</ele>
        <time>2024-12-04T12:01:34.000Z</time>
      </trkpt>
      <trkpt lat="44.13388" lon="3.2099">
        <ele>779.7</ele>
        <time>2024-12-04T12:01:42.000Z</time>
      </trkpt>
      <trkpt lat="44.13379" lon="3.20989">
        <ele>780.8</ele>
        <time>2024-12-04T12:01:50.000Z</time>
      </trkpt>
      <trkpt lat="44.13368" lon="3.20988">
        <ele>781.3</ele>
        <time>2024-12-04T12:01:54.000Z</time>
      </trkpt>
      <trkpt lat="44.13358" lon="3.20988">
        <ele>782.1</ele>
        <time>2024-12-04T12:02:00.000Z</time>
      </trkpt>
      <trkpt lat="44.13349" lon="3.20998">
        <ele>782.4</ele>
        <time>2024-12-04T12:02:04.000Z</time>
      </trkpt>
      <trkpt lat="44.1334" lon="3.21008">
        <ele>782.4</ele>
        <time>2024-12-04T12:02:06.000Z</time>
      </trkpt>
      <trkpt lat="44.1333" lon="3.21014">
        <ele>782.2</ele>
        <time>2024-12-04T12:02:09.000Z</time>
      </trkpt>
      <trkpt lat="44.13321" lon="3.21012">
        <ele>781.9</ele>
        <time>2024-12-04T12:02:16.000Z</time>
      </trkpt>
      <trkpt lat="44.13309" lon="3.21008">
        <ele>781.9</ele>
        <time>2024-12-04T12:02:23.000Z</time>
      </trkpt>
      <trkpt lat="44.13301" lon="3.21001">
        <ele>782.4</ele>
        <time>2024-12-04T12:02:28.000Z</time>
      </trkpt>
      <trkpt lat="44.13292" lon="3.20996">
        <ele>782.7</ele>
        <time>2024-12-04T12:02:33.000Z</time>
      </trkpt>
      <trkpt lat="44.13286" lon="3.20985">
        <ele>783</ele>
        <time>2024-12-04T12:02:38.000Z</time>
      </trkpt>
      <trkpt lat="44.1328" lon="3.20974">
        <ele>783.7</ele>
        <time>2024-12-04T12:02:46.000Z</time>
      </trkpt>
      <trkpt lat="44.13275" lon="3.20963">
        <ele>784.5</ele>
        <time>2024-12-04T12:02:53.000Z</time>
      </trkpt>
      <trkpt lat="44.13267" lon="3.20953">
        <ele>785</ele>
        <time>2024-12-04T12:02:59.000Z</time>
      </trkpt>
      <trkpt lat="44.13258" lon="3.20946">
        <ele>785.4</ele>
        <time>2024-12-04T12:03:05.000Z</time>
      </trkpt>
      <trkpt lat="44.1325" lon="3.20941">
        <ele>785.5</ele>
        <time>2024-12-04T12:03:09.000Z</time>
      </trkpt>
      <trkpt lat="44.13252" lon="3.20929">
        <ele>785.3</ele>
        <time>2024-12-04T12:03:16.000Z</time>
      </trkpt>
      <trkpt lat="44.13259" lon="3.20937">
        <ele>783.7</ele>
        <time>2024-12-04T12:06:55.000Z</time>
      </trkpt>
      <trkpt lat="44.13255" lon="3.20926">
        <ele>784.7</ele>
        <time>2024-12-04T12:07:15.000Z</time>
      </trkpt>
      <trkpt lat="44.1326" lon="3.20913">
        <ele>783.4</ele>
        <time>2024-12-04T12:10:42.000Z</time>
      </trkpt>
      <trkpt lat="44.13253" lon="3.20903">
        <ele>781.9</ele>
        <time>2024-12-04T12:10:48.000Z</time>
      </trkpt>
      <trkpt lat="44.13258" lon="3.20889">
        <ele>780.1</ele>
        <time>2024-12-04T12:10:53.000Z</time>
      </trkpt>
      <trkpt lat="44.13258" lon="3.20875">
        <ele>778.4</ele>
        <time>2024-12-04T12:10:57.000Z</time>
      </trkpt>
      <trkpt lat="44.13249" lon="3.2087">
        <ele>776.7</ele>
        <time>2024-12-04T12:11:01.000Z</time>
      </trkpt>
      <trkpt lat="44.13239" lon="3.2087">
        <ele>774.7</ele>
        <time>2024-12-04T12:11:06.000Z</time>
      </trkpt>
      <trkpt lat="44.13231" lon="3.20859">
        <ele>773.1</ele>
        <time>2024-12-04T12:11:10.000Z</time>
      </trkpt>
      <trkpt lat="44.13226" lon="3.20849">
        <ele>771.6</ele>
        <time>2024-12-04T12:11:13.000Z</time>
      </trkpt>
      <trkpt lat="44.13218" lon="3.20844">
        <ele>766.9</ele>
        <time>2024-12-04T12:11:25.000Z</time>
      </trkpt>
      <trkpt lat="44.13208" lon="3.20843">
        <ele>765.8</ele>
        <time>2024-12-04T12:11:28.000Z</time>
      </trkpt>
      <trkpt lat="44.13199" lon="3.20839">
        <ele>763.5</ele>
        <time>2024-12-04T12:11:34.000Z</time>
      </trkpt>
      <trkpt lat="44.13187" lon="3.20844">
        <ele>761.5</ele>
        <time>2024-12-04T12:11:42.000Z</time>
      </trkpt>
      <trkpt lat="44.13176" lon="3.20846">
        <ele>760.5</ele>
        <time>2024-12-04T12:11:45.000Z</time>
      </trkpt>
      <trkpt lat="44.13166" lon="3.20847">
        <ele>758.6</ele>
        <time>2024-12-04T12:11:50.000Z</time>
      </trkpt>
      <trkpt lat="44.13158" lon="3.20854">
        <ele>757.5</ele>
        <time>2024-12-04T12:11:53.000Z</time>
      </trkpt>
      <trkpt lat="44.13147" lon="3.20857">
        <ele>756.3</ele>
        <time>2024-12-04T12:11:56.000Z</time>
      </trkpt>
      <trkpt lat="44.13137" lon="3.20854">
        <ele>755</ele>
        <time>2024-12-04T12:11:59.000Z</time>
      </trkpt>
      <trkpt lat="44.13127" lon="3.20849">
        <ele>753.8</ele>
        <time>2024-12-04T12:12:02.000Z</time>
      </trkpt>
      <trkpt lat="44.13118" lon="3.20848">
        <ele>752.2</ele>
        <time>2024-12-04T12:12:06.000Z</time>
      </trkpt>
      <trkpt lat="44.1311" lon="3.20841">
        <ele>749.4</ele>
        <time>2024-12-04T12:12:13.000Z</time>
      </trkpt>
      <trkpt lat="44.131" lon="3.20839">
        <ele>747.9</ele>
        <time>2024-12-04T12:12:18.000Z</time>
      </trkpt>
      <trkpt lat="44.1309" lon="3.20838">
        <ele>746.9</ele>
        <time>2024-12-04T12:12:22.000Z</time>
      </trkpt>
      <trkpt lat="44.1308" lon="3.20833">
        <ele>746.2</ele>
        <time>2024-12-04T12:12:25.000Z</time>
      </trkpt>
      <trkpt lat="44.1307" lon="3.20827">
        <ele>745.5</ele>
        <time>2024-12-04T12:12:28.000Z</time>
      </trkpt>
      <trkpt lat="44.13059" lon="3.20827">
        <ele>744.7</ele>
        <time>2024-12-04T12:12:31.000Z</time>
      </trkpt>
      <trkpt lat="44.13047" lon="3.20828">
        <ele>744</ele>
        <time>2024-12-04T12:12:34.000Z</time>
      </trkpt>
      <trkpt lat="44.13037" lon="3.20835">
        <ele>743.1</ele>
        <time>2024-12-04T12:12:37.000Z</time>
      </trkpt>
      <trkpt lat="44.13026" lon="3.20836">
        <ele>741.9</ele>
        <time>2024-12-04T12:12:41.000Z</time>
      </trkpt>
      <trkpt lat="44.13017" lon="3.2083">
        <ele>741.1</ele>
        <time>2024-12-04T12:12:44.000Z</time>
      </trkpt>
      <trkpt lat="44.13006" lon="3.20822">
        <ele>739.9</ele>
        <time>2024-12-04T12:12:48.000Z</time>
      </trkpt>
      <trkpt lat="44.12998" lon="3.20818">
        <ele>738.8</ele>
        <time>2024-12-04T12:12:52.000Z</time>
      </trkpt>
      <trkpt lat="44.12988" lon="3.20819">
        <ele>737.9</ele>
        <time>2024-12-04T12:12:56.000Z</time>
      </trkpt>
      <trkpt lat="44.12983" lon="3.20833">
        <ele>735</ele>
        <time>2024-12-04T12:13:03.000Z</time>
      </trkpt>
      <trkpt lat="44.12976" lon="3.20841">
        <ele>732.3</ele>
        <time>2024-12-04T12:13:09.000Z</time>
      </trkpt>
      <trkpt lat="44.12967" lon="3.20848">
        <ele>730.5</ele>
        <time>2024-12-04T12:13:12.000Z</time>
      </trkpt>
      <trkpt lat="44.12961" lon="3.20861">
        <ele>728.6</ele>
        <time>2024-12-04T12:13:16.000Z</time>
      </trkpt>
      <trkpt lat="44.12966" lon="3.20873">
        <ele>727.7</ele>
        <time>2024-12-04T12:13:18.000Z</time>
      </trkpt>
      <trkpt lat="44.12968" lon="3.20891">
        <ele>726.5</ele>
        <time>2024-12-04T12:13:21.000Z</time>
      </trkpt>
      <trkpt lat="44.12969" lon="3.20907">
        <ele>725.2</ele>
        <time>2024-12-04T12:13:24.000Z</time>
      </trkpt>
      <trkpt lat="44.12971" lon="3.20922">
        <ele>723.6</ele>
        <time>2024-12-04T12:13:28.000Z</time>
      </trkpt>
      <trkpt lat="44.1297" lon="3.20939">
        <ele>722.1</ele>
        <time>2024-12-04T12:13:32.000Z</time>
      </trkpt>
      <trkpt lat="44.12969" lon="3.20956">
        <ele>720.9</ele>
        <time>2024-12-04T12:13:35.000Z</time>
      </trkpt>
      <trkpt lat="44.12972" lon="3.20968">
        <ele>720</ele>
        <time>2024-12-04T12:13:37.000Z</time>
      </trkpt>
      <trkpt lat="44.1297" lon="3.20985">
        <ele>718.7</ele>
        <time>2024-12-04T12:13:40.000Z</time>
      </trkpt>
      <trkpt lat="44.12966" lon="3.20999">
        <ele>717.1</ele>
        <time>2024-12-04T12:13:43.000Z</time>
      </trkpt>
      <trkpt lat="44.12963" lon="3.21013">
        <ele>715.6</ele>
        <time>2024-12-04T12:13:46.000Z</time>
      </trkpt>
      <trkpt lat="44.1296" lon="3.21028">
        <ele>713.6</ele>
        <time>2024-12-04T12:13:50.000Z</time>
      </trkpt>
      <trkpt lat="44.12957" lon="3.21041">
        <ele>711.8</ele>
        <time>2024-12-04T12:13:53.000Z</time>
      </trkpt>
      <trkpt lat="44.12962" lon="3.21053">
        <ele>709.4</ele>
        <time>2024-12-04T12:13:57.000Z</time>
      </trkpt>
      <trkpt lat="44.12969" lon="3.21062">
        <ele>707.6</ele>
        <time>2024-12-04T12:14:00.000Z</time>
      </trkpt>
      <trkpt lat="44.12979" lon="3.2107">
        <ele>705.9</ele>
        <time>2024-12-04T12:14:03.000Z</time>
      </trkpt>
      <trkpt lat="44.12986" lon="3.21078">
        <ele>703.5</ele>
        <time>2024-12-04T12:14:07.000Z</time>
      </trkpt>
      <trkpt lat="44.1299" lon="3.21091">
        <ele>699.2</ele>
        <time>2024-12-04T12:14:14.000Z</time>
      </trkpt>
      <trkpt lat="44.1298" lon="3.21094">
        <ele>695.5</ele>
        <time>2024-12-04T12:14:21.000Z</time>
      </trkpt>
      <trkpt lat="44.12969" lon="3.21094">
        <ele>693.9</ele>
        <time>2024-12-04T12:14:24.000Z</time>
      </trkpt>
      <trkpt lat="44.12959" lon="3.21095">
        <ele>686.1</ele>
        <time>2024-12-04T12:15:43.000Z</time>
      </trkpt>
      <trkpt lat="44.12949" lon="3.21093">
        <ele>685.9</ele>
        <time>2024-12-04T12:15:47.000Z</time>
      </trkpt>
      <trkpt lat="44.12943" lon="3.21082">
        <ele>685.1</ele>
        <time>2024-12-04T12:15:52.000Z</time>
      </trkpt>
      <trkpt lat="44.12938" lon="3.21069">
        <ele>683.7</ele>
        <time>2024-12-04T12:15:56.000Z</time>
      </trkpt>
      <trkpt lat="44.12926" lon="3.21073">
        <ele>679.3</ele>
        <time>2024-12-04T12:16:05.000Z</time>
      </trkpt>
      <trkpt lat="44.12922" lon="3.21085">
        <ele>677.8</ele>
        <time>2024-12-04T12:16:08.000Z</time>
      </trkpt>
      <trkpt lat="44.12914" lon="3.21093">
        <ele>675.8</ele>
        <time>2024-12-04T12:16:12.000Z</time>
      </trkpt>
      <trkpt lat="44.12907" lon="3.21103">
        <ele>673.8</ele>
        <time>2024-12-04T12:16:16.000Z</time>
      </trkpt>
      <trkpt lat="44.12904" lon="3.21115">
        <ele>670.9</ele>
        <time>2024-12-04T12:16:22.000Z</time>
      </trkpt>
      <trkpt lat="44.12897" lon="3.21129">
        <ele>668.5</ele>
        <time>2024-12-04T12:16:27.000Z</time>
      </trkpt>
      <trkpt lat="44.12887" lon="3.21136">
        <ele>665.9</ele>
        <time>2024-12-04T12:16:32.000Z</time>
      </trkpt>
      <trkpt lat="44.12871" lon="3.21132">
        <ele>664.8</ele>
        <time>2024-12-04T12:16:34.000Z</time>
      </trkpt>
      <trkpt lat="44.12858" lon="3.2113">
        <ele>663.1</ele>
        <time>2024-12-04T12:16:37.000Z</time>
      </trkpt>
      <trkpt lat="44.12847" lon="3.2113">
        <ele>661.5</ele>
        <time>2024-12-04T12:16:40.000Z</time>
      </trkpt>
      <trkpt lat="44.12838" lon="3.21126">
        <ele>659.4</ele>
        <time>2024-12-04T12:16:44.000Z</time>
      </trkpt>
      <trkpt lat="44.12829" lon="3.21124">
        <ele>653.3</ele>
        <time>2024-12-04T12:16:54.000Z</time>
      </trkpt>
      <trkpt lat="44.12828" lon="3.21139">
        <ele>650.4</ele>
        <time>2024-12-04T12:16:59.000Z</time>
      </trkpt>
      <trkpt lat="44.12828" lon="3.21153">
        <ele>648.7</ele>
        <time>2024-12-04T12:17:02.000Z</time>
      </trkpt>
      <trkpt lat="44.12818" lon="3.2115">
        <ele>644.6</ele>
        <time>2024-12-04T12:17:09.000Z</time>
      </trkpt>
      <trkpt lat="44.12806" lon="3.21154">
        <ele>642</ele>
        <time>2024-12-04T12:17:13.000Z</time>
      </trkpt>
      <trkpt lat="44.12797" lon="3.21154">
        <ele>640.8</ele>
        <time>2024-12-04T12:17:15.000Z</time>
      </trkpt>
      <trkpt lat="44.12788" lon="3.21159">
        <ele>638.9</ele>
        <time>2024-12-04T12:17:18.000Z</time>
      </trkpt>
      <trkpt lat="44.12785" lon="3.21172">
        <ele>636.5</ele>
        <time>2024-12-04T12:17:22.000Z</time>
      </trkpt>
      <trkpt lat="44.12795" lon="3.21179">
        <ele>634</ele>
        <time>2024-12-04T12:17:27.000Z</time>
      </trkpt>
      <trkpt lat="44.12795" lon="3.21193">
        <ele>631.4</ele>
        <time>2024-12-04T12:17:32.000Z</time>
      </trkpt>
      <trkpt lat="44.12786" lon="3.21188">
        <ele>624</ele>
        <time>2024-12-04T12:18:25.000Z</time>
      </trkpt>
      <trkpt lat="44.12775" lon="3.21194">
        <ele>623.3</ele>
        <time>2024-12-04T12:18:28.000Z</time>
      </trkpt>
      <trkpt lat="44.12764" lon="3.21193">
        <ele>622.3</ele>
        <time>2024-12-04T12:18:31.000Z</time>
      </trkpt>
      <trkpt lat="44.12755" lon="3.21193">
        <ele>621.2</ele>
        <time>2024-12-04T12:18:34.000Z</time>
      </trkpt>
      <trkpt lat="44.12742" lon="3.21193">
        <ele>619.4</ele>
        <time>2024-12-04T12:18:37.000Z</time>
      </trkpt>
      <trkpt lat="44.12732" lon="3.21191">
        <ele>618.2</ele>
        <time>2024-12-04T12:18:39.000Z</time>
      </trkpt>
      <trkpt lat="44.12718" lon="3.21187">
        <ele>616.8</ele>
        <time>2024-12-04T12:18:42.000Z</time>
      </trkpt>
      <trkpt lat="44.12708" lon="3.21183">
        <ele>615.1</ele>
        <time>2024-12-04T12:18:45.000Z</time>
      </trkpt>
      <trkpt lat="44.12697" lon="3.21178">
        <ele>612.9</ele>
        <time>2024-12-04T12:18:49.000Z</time>
      </trkpt>
      <trkpt lat="44.12684" lon="3.21175">
        <ele>611.2</ele>
        <time>2024-12-04T12:18:52.000Z</time>
      </trkpt>
      <trkpt lat="44.12675" lon="3.21168">
        <ele>609.2</ele>
        <time>2024-12-04T12:18:55.000Z</time>
      </trkpt>
      <trkpt lat="44.12666" lon="3.21161">
        <ele>605.7</ele>
        <time>2024-12-04T12:19:01.000Z</time>
      </trkpt>
      <trkpt lat="44.12669" lon="3.21149">
        <ele>598.6</ele>
        <time>2024-12-04T12:24:04.000Z</time>
      </trkpt>
      <trkpt lat="44.1267" lon="3.21136">
        <ele>599</ele>
        <time>2024-12-04T12:24:12.000Z</time>
      </trkpt>
      <trkpt lat="44.12671" lon="3.21124">
        <ele>599.6</ele>
        <time>2024-12-04T12:24:21.000Z</time>
      </trkpt>
      <trkpt lat="44.12676" lon="3.21113">
        <ele>599.9</ele>
        <time>2024-12-04T12:24:28.000Z</time>
      </trkpt>
      <trkpt lat="44.1267" lon="3.21103">
        <ele>600.3</ele>
        <time>2024-12-04T12:24:36.000Z</time>
      </trkpt>
      <trkpt lat="44.12667" lon="3.21091">
        <ele>600.7</ele>
        <time>2024-12-04T12:24:42.000Z</time>
      </trkpt>
      <trkpt lat="44.12658" lon="3.21084">
        <ele>601.2</ele>
        <time>2024-12-04T12:24:49.000Z</time>
      </trkpt>
      <trkpt lat="44.12648" lon="3.2108">
        <ele>601.5</ele>
        <time>2024-12-04T12:24:56.000Z</time>
      </trkpt>
      <trkpt lat="44.12642" lon="3.2107">
        <ele>601.4</ele>
        <time>2024-12-04T12:25:05.000Z</time>
      </trkpt>
      <trkpt lat="44.1264" lon="3.21057">
        <ele>600.6</ele>
        <time>2024-12-04T12:25:15.000Z</time>
      </trkpt>
      <trkpt lat="44.12651" lon="3.21021">
        <ele>599</ele>
        <time>2024-12-04T12:25:23.000Z</time>
      </trkpt>
      <trkpt lat="44.12659" lon="3.21014">
        <ele>599.3</ele>
        <time>2024-12-04T12:25:29.000Z</time>
      </trkpt>
      <trkpt lat="44.12668" lon="3.21012">
        <ele>598.8</ele>
        <time>2024-12-04T12:25:44.000Z</time>
      </trkpt>
      <trkpt lat="44.12659" lon="3.21004">
        <ele>598.6</ele>
        <time>2024-12-04T12:26:11.000Z</time>
      </trkpt>
      <trkpt lat="44.12646" lon="3.20995">
        <ele>598</ele>
        <time>2024-12-04T12:26:15.000Z</time>
      </trkpt>
      <trkpt lat="44.12638" lon="3.20988">
        <ele>597.8</ele>
        <time>2024-12-04T12:26:21.000Z</time>
      </trkpt>
      <trkpt lat="44.12628" lon="3.20984">
        <ele>598.1</ele>
        <time>2024-12-04T12:26:32.000Z</time>
      </trkpt>
      <trkpt lat="44.12617" lon="3.20986">
        <ele>598.5</ele>
        <time>2024-12-04T12:26:41.000Z</time>
      </trkpt>
      <trkpt lat="44.12607" lon="3.20984">
        <ele>598.3</ele>
        <time>2024-12-04T12:26:47.000Z</time>
      </trkpt>
      <trkpt lat="44.12599" lon="3.20979">
        <ele>598.4</ele>
        <time>2024-12-04T12:26:55.000Z</time>
      </trkpt>
      <trkpt lat="44.12589" lon="3.20973">
        <ele>598.6</ele>
        <time>2024-12-04T12:27:00.000Z</time>
      </trkpt>
      <trkpt lat="44.1258" lon="3.20967">
        <ele>598.6</ele>
        <time>2024-12-04T12:27:04.000Z</time>
      </trkpt>
      <trkpt lat="44.12572" lon="3.20962">
        <ele>598.8</ele>
        <time>2024-12-04T12:27:10.000Z</time>
      </trkpt>
      <trkpt lat="44.12563" lon="3.20967">
        <ele>598.9</ele>
        <time>2024-12-04T12:28:46.000Z</time>
      </trkpt>
      <trkpt lat="44.12548" lon="3.2094">
        <ele>595</ele>
        <time>2024-12-04T12:38:00.000Z</time>
      </trkpt>
      <trkpt lat="44.12539" lon="3.20929">
        <ele>595.5</ele>
        <time>2024-12-04T12:38:05.000Z</time>
      </trkpt>
      <trkpt lat="44.12531" lon="3.20921">
        <ele>595</ele>
        <time>2024-12-04T12:38:14.000Z</time>
      </trkpt>
      <trkpt lat="44.12531" lon="3.20909">
        <ele>594.8</ele>
        <time>2024-12-04T12:38:28.000Z</time>
      </trkpt>
      <trkpt lat="44.12535" lon="3.20895">
        <ele>596.3</ele>
        <time>2024-12-04T12:38:57.000Z</time>
      </trkpt>
      <trkpt lat="44.12543" lon="3.20888">
        <ele>597.6</ele>
        <time>2024-12-04T12:39:17.000Z</time>
      </trkpt>
      <trkpt lat="44.12548" lon="3.20878">
        <ele>599.6</ele>
        <time>2024-12-04T12:39:32.000Z</time>
      </trkpt>
      <trkpt lat="44.12552" lon="3.20866">
        <ele>602.1</ele>
        <time>2024-12-04T12:39:50.000Z</time>
      </trkpt>
      <trkpt lat="44.12549" lon="3.20853">
        <ele>603.9</ele>
        <time>2024-12-04T12:40:02.000Z</time>
      </trkpt>
      <trkpt lat="44.12545" lon="3.20841">
        <ele>605.7</ele>
        <time>2024-12-04T12:40:14.000Z</time>
      </trkpt>
      <trkpt lat="44.12538" lon="3.20833">
        <ele>607.9</ele>
        <time>2024-12-04T12:40:28.000Z</time>
      </trkpt>
      <trkpt lat="44.12537" lon="3.20821">
        <ele>611</ele>
        <time>2024-12-04T12:40:55.000Z</time>
      </trkpt>
      <trkpt lat="44.12534" lon="3.20807">
        <ele>611.4</ele>
        <time>2024-12-04T12:41:02.000Z</time>
      </trkpt>
      <trkpt lat="44.12535" lon="3.20794">
        <ele>612.3</ele>
        <time>2024-12-04T12:41:09.000Z</time>
      </trkpt>
      <trkpt lat="44.12534" lon="3.20781">
        <ele>613.4</ele>
        <time>2024-12-04T12:41:17.000Z</time>
      </trkpt>
      <trkpt lat="44.12531" lon="3.20768">
        <ele>613.9</ele>
        <time>2024-12-04T12:41:23.000Z</time>
      </trkpt>
      <trkpt lat="44.12527" lon="3.20753">
        <ele>614.4</ele>
        <time>2024-12-04T12:41:32.000Z</time>
      </trkpt>
      <trkpt lat="44.12523" lon="3.20742">
        <ele>614.6</ele>
        <time>2024-12-04T12:41:38.000Z</time>
      </trkpt>
      <trkpt lat="44.12521" lon="3.20729">
        <ele>614.6</ele>
        <time>2024-12-04T12:41:45.000Z</time>
      </trkpt>
      <trkpt lat="44.12521" lon="3.20716">
        <ele>614.7</ele>
        <time>2024-12-04T12:41:50.000Z</time>
      </trkpt>
      <trkpt lat="44.12522" lon="3.207">
        <ele>614.6</ele>
        <time>2024-12-04T12:41:55.000Z</time>
      </trkpt>
      <trkpt lat="44.12524" lon="3.20687">
        <ele>613.6</ele>
        <time>2024-12-04T12:42:00.000Z</time>
      </trkpt>
      <trkpt lat="44.12527" lon="3.20675">
        <ele>613.5</ele>
        <time>2024-12-04T12:42:06.000Z</time>
      </trkpt>
      <trkpt lat="44.1253" lon="3.20663">
        <ele>613.4</ele>
        <time>2024-12-04T12:42:10.000Z</time>
      </trkpt>
      <trkpt lat="44.12532" lon="3.2065">
        <ele>613.5</ele>
        <time>2024-12-04T12:42:15.000Z</time>
      </trkpt>
      <trkpt lat="44.12535" lon="3.20636">
        <ele>613.4</ele>
        <time>2024-12-04T12:42:21.000Z</time>
      </trkpt>
      <trkpt lat="44.12537" lon="3.20622">
        <ele>613.4</ele>
        <time>2024-12-04T12:42:25.000Z</time>
      </trkpt>
      <trkpt lat="44.1254" lon="3.2061">
        <ele>613.2</ele>
        <time>2024-12-04T12:42:28.000Z</time>
      </trkpt>
      <trkpt lat="44.12546" lon="3.20598">
        <ele>612.3</ele>
        <time>2024-12-04T12:42:32.000Z</time>
      </trkpt>
      <trkpt lat="44.12543" lon="3.20585">
        <ele>611.8</ele>
        <time>2024-12-04T12:42:37.000Z</time>
      </trkpt>
      <trkpt lat="44.12538" lon="3.20572">
        <ele>611.5</ele>
        <time>2024-12-04T12:42:44.000Z</time>
      </trkpt>
      <trkpt lat="44.12535" lon="3.20561">
        <ele>611.4</ele>
        <time>2024-12-04T12:42:52.000Z</time>
      </trkpt>
      <trkpt lat="44.12531" lon="3.20548">
        <ele>611.9</ele>
        <time>2024-12-04T12:43:00.000Z</time>
      </trkpt>
      <trkpt lat="44.1253" lon="3.20534">
        <ele>612.9</ele>
        <time>2024-12-04T12:43:08.000Z</time>
      </trkpt>
      <trkpt lat="44.12527" lon="3.2052">
        <ele>614.7</ele>
        <time>2024-12-04T12:43:17.000Z</time>
      </trkpt>
      <trkpt lat="44.12531" lon="3.20505">
        <ele>618.7</ele>
        <time>2024-12-04T12:43:53.000Z</time>
      </trkpt>
      <trkpt lat="44.12538" lon="3.20496">
        <ele>618.5</ele>
        <time>2024-12-04T12:43:57.000Z</time>
      </trkpt>
      <trkpt lat="44.12545" lon="3.20488">
        <ele>618.6</ele>
        <time>2024-12-04T12:44:03.000Z</time>
      </trkpt>
      <trkpt lat="44.12552" lon="3.20478">
        <ele>618.7</ele>
        <time>2024-12-04T12:44:10.000Z</time>
      </trkpt>
      <trkpt lat="44.12552" lon="3.20464">
        <ele>618.7</ele>
        <time>2024-12-04T12:44:55.000Z</time>
      </trkpt>
      <trkpt lat="44.12559" lon="3.20452">
        <ele>618.7</ele>
        <time>2024-12-04T12:45:00.000Z</time>
      </trkpt>
      <trkpt lat="44.12563" lon="3.20442">
        <ele>618.5</ele>
        <time>2024-12-04T12:45:04.000Z</time>
      </trkpt>
      <trkpt lat="44.12567" lon="3.2043">
        <ele>618.7</ele>
        <time>2024-12-04T12:45:10.000Z</time>
      </trkpt>
      <trkpt lat="44.12568" lon="3.20417">
        <ele>619.1</ele>
        <time>2024-12-04T12:45:18.000Z</time>
      </trkpt>
      <trkpt lat="44.12574" lon="3.20406">
        <ele>619.6</ele>
        <time>2024-12-04T12:45:25.000Z</time>
      </trkpt>
      <trkpt lat="44.1258" lon="3.20395">
        <ele>620.5</ele>
        <time>2024-12-04T12:45:32.000Z</time>
      </trkpt>
      <trkpt lat="44.12582" lon="3.20383">
        <ele>620.9</ele>
        <time>2024-12-04T12:45:38.000Z</time>
      </trkpt>
      <trkpt lat="44.12589" lon="3.20373">
        <ele>621.4</ele>
        <time>2024-12-04T12:45:43.000Z</time>
      </trkpt>
      <trkpt lat="44.1259" lon="3.20359">
        <ele>621.8</ele>
        <time>2024-12-04T12:45:49.000Z</time>
      </trkpt>
      <trkpt lat="44.12593" lon="3.20346">
        <ele>621.7</ele>
        <time>2024-12-04T12:45:54.000Z</time>
      </trkpt>
      <trkpt lat="44.12598" lon="3.20336">
        <ele>621.5</ele>
        <time>2024-12-04T12:46:00.000Z</time>
      </trkpt>
      <trkpt lat="44.12604" lon="3.20324">
        <ele>622.3</ele>
        <time>2024-12-04T12:46:07.000Z</time>
      </trkpt>
      <trkpt lat="44.12607" lon="3.20311">
        <ele>623.4</ele>
        <time>2024-12-04T12:46:14.000Z</time>
      </trkpt>
      <trkpt lat="44.1261" lon="3.20298">
        <ele>625.3</ele>
        <time>2024-12-04T12:46:23.000Z</time>
      </trkpt>
      <trkpt lat="44.12606" lon="3.20286">
        <ele>626.4</ele>
        <time>2024-12-04T12:46:30.000Z</time>
      </trkpt>
      <trkpt lat="44.12609" lon="3.20273">
        <ele>627.7</ele>
        <time>2024-12-04T12:46:39.000Z</time>
      </trkpt>
      <trkpt lat="44.1261" lon="3.2026">
        <ele>629.1</ele>
        <time>2024-12-04T12:46:49.000Z</time>
      </trkpt>
      <trkpt lat="44.1261" lon="3.20246">
        <ele>630</ele>
        <time>2024-12-04T12:46:57.000Z</time>
      </trkpt>
      <trkpt lat="44.12618" lon="3.20238">
        <ele>630.6</ele>
        <time>2024-12-04T12:47:06.000Z</time>
      </trkpt>
      <trkpt lat="44.12627" lon="3.20235">
        <ele>631.1</ele>
        <time>2024-12-04T12:47:17.000Z</time>
      </trkpt>
      <trkpt lat="44.12636" lon="3.20238">
        <ele>633.1</ele>
        <time>2024-12-04T12:48:56.000Z</time>
      </trkpt>
      <trkpt lat="44.12646" lon="3.20241">
        <ele>633.7</ele>
        <time>2024-12-04T12:49:04.000Z</time>
      </trkpt>
      <trkpt lat="44.12655" lon="3.20243">
        <ele>633.9</ele>
        <time>2024-12-04T12:49:10.000Z</time>
      </trkpt>
      <trkpt lat="44.12665" lon="3.20246">
        <ele>634.1</ele>
        <time>2024-12-04T12:49:15.000Z</time>
      </trkpt>
      <trkpt lat="44.12674" lon="3.20246">
        <ele>634</ele>
        <time>2024-12-04T12:49:21.000Z</time>
      </trkpt>
      <trkpt lat="44.12684" lon="3.20245">
        <ele>634.5</ele>
        <time>2024-12-04T12:49:27.000Z</time>
      </trkpt>
      <trkpt lat="44.12695" lon="3.20243">
        <ele>634</ele>
        <time>2024-12-04T12:49:35.000Z</time>
      </trkpt>
      <trkpt lat="44.12704" lon="3.20244">
        <ele>635</ele>
        <time>2024-12-04T12:49:45.000Z</time>
      </trkpt>
      <trkpt lat="44.12714" lon="3.20246">
        <ele>638.2</ele>
        <time>2024-12-04T12:50:02.000Z</time>
      </trkpt>
      <trkpt lat="44.12724" lon="3.20244">
        <ele>639.7</ele>
        <time>2024-12-04T12:50:12.000Z</time>
      </trkpt>
      <trkpt lat="44.12733" lon="3.20249">
        <ele>640.8</ele>
        <time>2024-12-04T12:50:19.000Z</time>
      </trkpt>
      <trkpt lat="44.12741" lon="3.20255">
        <ele>642.3</ele>
        <time>2024-12-04T12:50:28.000Z</time>
      </trkpt>
      <trkpt lat="44.1275" lon="3.20259">
        <ele>645.8</ele>
        <time>2024-12-04T12:51:23.000Z</time>
      </trkpt>
      <trkpt lat="44.12752" lon="3.20272">
        <ele>645.4</ele>
        <time>2024-12-04T12:51:38.000Z</time>
      </trkpt>
      <trkpt lat="44.12762" lon="3.20275">
        <ele>648.7</ele>
        <time>2024-12-04T12:52:12.000Z</time>
      </trkpt>
      <trkpt lat="44.12769" lon="3.20277">
        <ele>660.2</ele>
        <time>2024-12-04T12:55:32.000Z</time>
      </trkpt>
      <trkpt lat="44.12766" lon="3.20259">
        <ele>659</ele>
        <time>2024-12-04T12:55:35.000Z</time>
      </trkpt>
      <trkpt lat="44.12759" lon="3.20248">
        <ele>657.4</ele>
        <time>2024-12-04T12:55:38.000Z</time>
      </trkpt>
      <trkpt lat="44.12752" lon="3.20233">
        <ele>655.6</ele>
        <time>2024-12-04T12:55:41.000Z</time>
      </trkpt>
      <trkpt lat="44.12751" lon="3.20219">
        <ele>653</ele>
        <time>2024-12-04T12:55:45.000Z</time>
      </trkpt>
      <trkpt lat="44.12751" lon="3.20204">
        <ele>649.5</ele>
        <time>2024-12-04T12:55:52.000Z</time>
      </trkpt>
      <trkpt lat="44.12745" lon="3.2019">
        <ele>648.1</ele>
        <time>2024-12-04T12:55:56.000Z</time>
      </trkpt>
      <trkpt lat="44.1274" lon="3.20179">
        <ele>646.8</ele>
        <time>2024-12-04T12:56:01.000Z</time>
      </trkpt>
      <trkpt lat="44.1274" lon="3.20166">
        <ele>645.8</ele>
        <time>2024-12-04T12:56:07.000Z</time>
      </trkpt>
      <trkpt lat="44.12742" lon="3.20154">
        <ele>645.6</ele>
        <time>2024-12-04T12:56:14.000Z</time>
      </trkpt>
      <trkpt lat="44.12754" lon="3.20166">
        <ele>645.8</ele>
        <time>2024-12-04T12:56:20.000Z</time>
      </trkpt>
      <trkpt lat="44.12767" lon="3.20163">
        <ele>646</ele>
        <time>2024-12-04T12:56:24.000Z</time>
      </trkpt>
      <trkpt lat="44.12846" lon="3.20181">
        <ele>652.2</ele>
        <time>2024-12-04T12:58:03.000Z</time>
      </trkpt>
      <trkpt lat="44.12848" lon="3.20167">
        <ele>652.3</ele>
        <time>2024-12-04T12:58:05.000Z</time>
      </trkpt>
      <trkpt lat="44.12861" lon="3.2014">
        <ele>652</ele>
        <time>2024-12-04T12:58:10.000Z</time>
      </trkpt>
      <trkpt lat="44.1287" lon="3.20136">
        <ele>652.3</ele>
        <time>2024-12-04T12:58:18.000Z</time>
      </trkpt>
      <trkpt lat="44.12875" lon="3.20124">
        <ele>652.7</ele>
        <time>2024-12-04T12:58:33.000Z</time>
      </trkpt>
      <trkpt lat="44.12884" lon="3.20131">
        <ele>653.4</ele>
        <time>2024-12-04T12:58:59.000Z</time>
      </trkpt>
      <trkpt lat="44.12887" lon="3.20137">
        <ele>653.8</ele>
        <time>2024-12-04T13:41:49.000Z</time>
      </trkpt>
      <trkpt lat="44.12897" lon="3.20133">
        <ele>654.1</ele>
        <time>2024-12-04T13:41:57.000Z</time>
      </trkpt>
      <trkpt lat="44.12905" lon="3.20141">
        <ele>654.3</ele>
        <time>2024-12-04T13:42:06.000Z</time>
      </trkpt>
      <trkpt lat="44.12914" lon="3.20145">
        <ele>655.1</ele>
        <time>2024-12-04T13:42:16.000Z</time>
      </trkpt>
      <trkpt lat="44.12923" lon="3.20149">
        <ele>655.4</ele>
        <time>2024-12-04T13:42:20.000Z</time>
      </trkpt>
      <trkpt lat="44.12932" lon="3.20153">
        <ele>655.4</ele>
        <time>2024-12-04T13:42:27.000Z</time>
      </trkpt>
      <trkpt lat="44.12942" lon="3.20156">
        <ele>656.5</ele>
        <time>2024-12-04T13:42:39.000Z</time>
      </trkpt>
      <trkpt lat="44.12953" lon="3.20155">
        <ele>657</ele>
        <time>2024-12-04T13:42:45.000Z</time>
      </trkpt>
      <trkpt lat="44.12961" lon="3.2015">
        <ele>657.3</ele>
        <time>2024-12-04T13:42:51.000Z</time>
      </trkpt>
      <trkpt lat="44.12971" lon="3.20144">
        <ele>657.5</ele>
        <time>2024-12-04T13:42:58.000Z</time>
      </trkpt>
      <trkpt lat="44.12979" lon="3.20137">
        <ele>657.8</ele>
        <time>2024-12-04T13:43:06.000Z</time>
      </trkpt>
      <trkpt lat="44.12989" lon="3.20136">
        <ele>659.2</ele>
        <time>2024-12-04T13:43:15.000Z</time>
      </trkpt>
      <trkpt lat="44.12998" lon="3.20139">
        <ele>660.4</ele>
        <time>2024-12-04T13:43:22.000Z</time>
      </trkpt>
      <trkpt lat="44.13007" lon="3.20137">
        <ele>661</ele>
        <time>2024-12-04T13:43:29.000Z</time>
      </trkpt>
      <trkpt lat="44.13017" lon="3.2013">
        <ele>661.5</ele>
        <time>2024-12-04T13:43:36.000Z</time>
      </trkpt>
      <trkpt lat="44.13026" lon="3.20126">
        <ele>661.4</ele>
        <time>2024-12-04T13:43:42.000Z</time>
      </trkpt>
      <trkpt lat="44.13035" lon="3.20122">
        <ele>661.4</ele>
        <time>2024-12-04T13:44:46.000Z</time>
      </trkpt>
      <trkpt lat="44.13046" lon="3.20106">
        <ele>658.9</ele>
        <time>2024-12-04T13:45:02.000Z</time>
      </trkpt>
      <trkpt lat="44.13052" lon="3.20097">
        <ele>654.7</ele>
        <time>2024-12-04T13:45:29.000Z</time>
      </trkpt>
      <trkpt lat="44.1306" lon="3.20088">
        <ele>651.9</ele>
        <time>2024-12-04T13:45:43.000Z</time>
      </trkpt>
      <trkpt lat="44.13068" lon="3.20049">
        <ele>655.3</ele>
        <time>2024-12-04T14:18:35.000Z</time>
      </trkpt>
      <trkpt lat="44.13064" lon="3.20036">
        <ele>656.3</ele>
        <time>2024-12-04T14:18:46.000Z</time>
      </trkpt>
      <trkpt lat="44.13059" lon="3.20008">
        <ele>656.8</ele>
        <time>2024-12-04T14:25:47.000Z</time>
      </trkpt>
      <trkpt lat="44.13054" lon="3.19995">
        <ele>656.8</ele>
        <time>2024-12-04T14:25:53.000Z</time>
      </trkpt>
      <trkpt lat="44.1305" lon="3.19982">
        <ele>656.8</ele>
        <time>2024-12-04T14:25:58.000Z</time>
      </trkpt>
      <trkpt lat="44.13045" lon="3.19966">
        <ele>656.4</ele>
        <time>2024-12-04T14:26:02.000Z</time>
      </trkpt>
      <trkpt lat="44.1304" lon="3.19954">
        <ele>655.9</ele>
        <time>2024-12-04T14:26:05.000Z</time>
      </trkpt>
      <trkpt lat="44.13039" lon="3.19941">
        <ele>655.1</ele>
        <time>2024-12-04T14:26:08.000Z</time>
      </trkpt>
      <trkpt lat="44.1304" lon="3.19926">
        <ele>653.3</ele>
        <time>2024-12-04T14:26:13.000Z</time>
      </trkpt>
      <trkpt lat="44.13036" lon="3.19914">
        <ele>650.9</ele>
        <time>2024-12-04T14:26:18.000Z</time>
      </trkpt>
      <trkpt lat="44.13035" lon="3.19901">
        <ele>648.1</ele>
        <time>2024-12-04T14:26:23.000Z</time>
      </trkpt>
      <trkpt lat="44.1303" lon="3.19889">
        <ele>645.1</ele>
        <time>2024-12-04T14:26:28.000Z</time>
      </trkpt>
      <trkpt lat="44.13026" lon="3.19876">
        <ele>642.2</ele>
        <time>2024-12-04T14:26:33.000Z</time>
      </trkpt>
      <trkpt lat="44.13019" lon="3.19866">
        <ele>639.8</ele>
        <time>2024-12-04T14:26:38.000Z</time>
      </trkpt>
      <trkpt lat="44.13009" lon="3.1986">
        <ele>637.3</ele>
        <time>2024-12-04T14:26:43.000Z</time>
      </trkpt>
      <trkpt lat="44.12999" lon="3.19852">
        <ele>635.5</ele>
        <time>2024-12-04T14:26:47.000Z</time>
      </trkpt>
      <trkpt lat="44.12989" lon="3.1985">
        <ele>632.7</ele>
        <time>2024-12-04T14:26:52.000Z</time>
      </trkpt>
      <trkpt lat="44.12982" lon="3.19839">
        <ele>630.2</ele>
        <time>2024-12-04T14:26:59.000Z</time>
      </trkpt>
      <trkpt lat="44.12976" lon="3.19827">
        <ele>628.8</ele>
        <time>2024-12-04T14:27:05.000Z</time>
      </trkpt>
      <trkpt lat="44.12969" lon="3.19819">
        <ele>628.4</ele>
        <time>2024-12-04T14:27:12.000Z</time>
      </trkpt>
      <trkpt lat="44.1296" lon="3.19814">
        <ele>628.4</ele>
        <time>2024-12-04T14:27:18.000Z</time>
      </trkpt>
      <trkpt lat="44.1295" lon="3.19809">
        <ele>628.1</ele>
        <time>2024-12-04T14:27:25.000Z</time>
      </trkpt>
      <trkpt lat="44.1294" lon="3.19807">
        <ele>628</ele>
        <time>2024-12-04T14:28:13.000Z</time>
      </trkpt>
      <trkpt lat="44.12931" lon="3.19799">
        <ele>627.6</ele>
        <time>2024-12-04T14:28:17.000Z</time>
      </trkpt>
      <trkpt lat="44.12922" lon="3.19796">
        <ele>627.2</ele>
        <time>2024-12-04T14:28:23.000Z</time>
      </trkpt>
      <trkpt lat="44.12915" lon="3.19787">
        <ele>627.4</ele>
        <time>2024-12-04T14:28:30.000Z</time>
      </trkpt>
      <trkpt lat="44.12907" lon="3.19779">
        <ele>627.9</ele>
        <time>2024-12-04T14:28:39.000Z</time>
      </trkpt>
      <trkpt lat="44.129" lon="3.19769">
        <ele>627.7</ele>
        <time>2024-12-04T14:28:46.000Z</time>
      </trkpt>
      <trkpt lat="44.12893" lon="3.19759">
        <ele>628</ele>
        <time>2024-12-04T14:28:54.000Z</time>
      </trkpt>
      <trkpt lat="44.12883" lon="3.19767">
        <ele>628.4</ele>
        <time>2024-12-04T14:29:15.000Z</time>
      </trkpt>
      <trkpt lat="44.12879" lon="3.19755">
        <ele>628.7</ele>
        <time>2024-12-04T14:31:22.000Z</time>
      </trkpt>
      <trkpt lat="44.12873" lon="3.19745">
        <ele>628.9</ele>
        <time>2024-12-04T14:31:33.000Z</time>
      </trkpt>
      <trkpt lat="44.12867" lon="3.19735">
        <ele>629.3</ele>
        <time>2024-12-04T14:32:03.000Z</time>
      </trkpt>
      <trkpt lat="44.12858" lon="3.19726">
        <ele>630.6</ele>
        <time>2024-12-04T14:35:39.000Z</time>
      </trkpt>
      <trkpt lat="44.12856" lon="3.19714">
        <ele>631.1</ele>
        <time>2024-12-04T14:36:02.000Z</time>
      </trkpt>
      <trkpt lat="44.12852" lon="3.19703">
        <ele>634.6</ele>
        <time>2024-12-04T14:36:38.000Z</time>
      </trkpt>
      <trkpt lat="44.12848" lon="3.19691">
        <ele>636.6</ele>
        <time>2024-12-04T14:36:55.000Z</time>
      </trkpt>
      <trkpt lat="44.12857" lon="3.19687">
        <ele>638</ele>
        <time>2024-12-04T14:37:24.000Z</time>
      </trkpt>
      <trkpt lat="44.12866" lon="3.19682">
        <ele>637</ele>
        <time>2024-12-04T14:37:37.000Z</time>
      </trkpt>
      <trkpt lat="44.12876" lon="3.19687">
        <ele>637.6</ele>
        <time>2024-12-04T14:37:46.000Z</time>
      </trkpt>
      <trkpt lat="44.12885" lon="3.19685">
        <ele>638.3</ele>
        <time>2024-12-04T14:38:04.000Z</time>
      </trkpt>
      <trkpt lat="44.12894" lon="3.19679">
        <ele>638.8</ele>
        <time>2024-12-04T14:38:10.000Z</time>
      </trkpt>
      <trkpt lat="44.12904" lon="3.19681">
        <ele>640.4</ele>
        <time>2024-12-04T14:39:11.000Z</time>
      </trkpt>
      <trkpt lat="44.12906" lon="3.19669">
        <ele>641.3</ele>
        <time>2024-12-04T14:39:24.000Z</time>
      </trkpt>
      <trkpt lat="44.12913" lon="3.19659">
        <ele>641.4</ele>
        <time>2024-12-04T14:39:43.000Z</time>
      </trkpt>
      <trkpt lat="44.1292" lon="3.19648">
        <ele>640.9</ele>
        <time>2024-12-04T14:39:48.000Z</time>
      </trkpt>
      <trkpt lat="44.12928" lon="3.1964">
        <ele>640.1</ele>
        <time>2024-12-04T14:39:52.000Z</time>
      </trkpt>
      <trkpt lat="44.12937" lon="3.19637">
        <ele>639.1</ele>
        <time>2024-12-04T14:39:56.000Z</time>
      </trkpt>
      <trkpt lat="44.12948" lon="3.19637">
        <ele>637.7</ele>
        <time>2024-12-04T14:40:00.000Z</time>
      </trkpt>
      <trkpt lat="44.12959" lon="3.19635">
        <ele>635.9</ele>
        <time>2024-12-04T14:40:05.000Z</time>
      </trkpt>
      <trkpt lat="44.12969" lon="3.19636">
        <ele>633.7</ele>
        <time>2024-12-04T14:40:09.000Z</time>
      </trkpt>
      <trkpt lat="44.1298" lon="3.19634">
        <ele>630.1</ele>
        <time>2024-12-04T14:40:23.000Z</time>
      </trkpt>
      <trkpt lat="44.12989" lon="3.1963">
        <ele>629.8</ele>
        <time>2024-12-04T14:40:25.000Z</time>
      </trkpt>
      <trkpt lat="44.12997" lon="3.19624">
        <ele>629.4</ele>
        <time>2024-12-04T14:40:30.000Z</time>
      </trkpt>
      <trkpt lat="44.12995" lon="3.19612">
        <ele>628.9</ele>
        <time>2024-12-04T14:40:39.000Z</time>
      </trkpt>
      <trkpt lat="44.12992" lon="3.19599">
        <ele>628.6</ele>
        <time>2024-12-04T14:40:46.000Z</time>
      </trkpt>
      <trkpt lat="44.12982" lon="3.19595">
        <ele>627.7</ele>
        <time>2024-12-04T14:40:49.000Z</time>
      </trkpt>
      <trkpt lat="44.12973" lon="3.19598">
        <ele>626.8</ele>
        <time>2024-12-04T14:40:52.000Z</time>
      </trkpt>
      <trkpt lat="44.12963" lon="3.19593">
        <ele>624.4</ele>
        <time>2024-12-04T14:41:01.000Z</time>
      </trkpt>
      <trkpt lat="44.12954" lon="3.19584">
        <ele>623.6</ele>
        <time>2024-12-04T14:41:05.000Z</time>
      </trkpt>
      <trkpt lat="44.12945" lon="3.19578">
        <ele>622.7</ele>
        <time>2024-12-04T14:41:08.000Z</time>
      </trkpt>
      <trkpt lat="44.12935" lon="3.19571">
        <ele>621.2</ele>
        <time>2024-12-04T14:41:11.000Z</time>
      </trkpt>
      <trkpt lat="44.12924" lon="3.19569">
        <ele>620.2</ele>
        <time>2024-12-04T14:41:13.000Z</time>
      </trkpt>
      <trkpt lat="44.12916" lon="3.19577">
        <ele>618.8</ele>
        <time>2024-12-04T14:41:16.000Z</time>
      </trkpt>
      <trkpt lat="44.12908" lon="3.19586">
        <ele>617.1</ele>
        <time>2024-12-04T14:41:20.000Z</time>
      </trkpt>
      <trkpt lat="44.12899" lon="3.19597">
        <ele>613.3</ele>
        <time>2024-12-04T14:41:35.000Z</time>
      </trkpt>
      <trkpt lat="44.1289" lon="3.19594">
        <ele>611.2</ele>
        <time>2024-12-04T14:41:39.000Z</time>
      </trkpt>
      <trkpt lat="44.12882" lon="3.19588">
        <ele>599.7</ele>
        <time>2024-12-04T14:42:12.000Z</time>
      </trkpt>
      <trkpt lat="44.12871" lon="3.19586">
        <ele>598.4</ele>
        <time>2024-12-04T14:42:15.000Z</time>
      </trkpt>
      <trkpt lat="44.12862" lon="3.19583">
        <ele>596.6</ele>
        <time>2024-12-04T14:42:18.000Z</time>
      </trkpt>
      <trkpt lat="44.12851" lon="3.19581">
        <ele>593.8</ele>
        <time>2024-12-04T14:42:22.000Z</time>
      </trkpt>
      <trkpt lat="44.12837" lon="3.1958">
        <ele>591</ele>
        <time>2024-12-04T14:42:25.000Z</time>
      </trkpt>
      <trkpt lat="44.12825" lon="3.19578">
        <ele>587.9</ele>
        <time>2024-12-04T14:42:28.000Z</time>
      </trkpt>
      <trkpt lat="44.12814" lon="3.19577">
        <ele>584.9</ele>
        <time>2024-12-04T14:42:31.000Z</time>
      </trkpt>
      <trkpt lat="44.12804" lon="3.19574">
        <ele>581.4</ele>
        <time>2024-12-04T14:42:34.000Z</time>
      </trkpt>
      <trkpt lat="44.128" lon="3.19561">
        <ele>573.6</ele>
        <time>2024-12-04T14:42:41.000Z</time>
      </trkpt>
      <trkpt lat="44.12787" lon="3.19559">
        <ele>570.4</ele>
        <time>2024-12-04T14:42:44.000Z</time>
      </trkpt>
      <trkpt lat="44.12778" lon="3.19554">
        <ele>568.4</ele>
        <time>2024-12-04T14:42:46.000Z</time>
      </trkpt>
      <trkpt lat="44.12769" lon="3.19545">
        <ele>565</ele>
        <time>2024-12-04T14:42:49.000Z</time>
      </trkpt>
      <trkpt lat="44.12759" lon="3.1954">
        <ele>560.2</ele>
        <time>2024-12-04T14:42:53.000Z</time>
      </trkpt>
      <trkpt lat="44.12749" lon="3.19533">
        <ele>555.1</ele>
        <time>2024-12-04T14:42:57.000Z</time>
      </trkpt>
      <trkpt lat="44.12739" lon="3.19528">
        <ele>551.3</ele>
        <time>2024-12-04T14:43:00.000Z</time>
      </trkpt>
      <trkpt lat="44.12731" lon="3.19516">
        <ele>547.4</ele>
        <time>2024-12-04T14:43:03.000Z</time>
      </trkpt>
      <trkpt lat="44.12725" lon="3.19503">
        <ele>543.4</ele>
        <time>2024-12-04T14:43:06.000Z</time>
      </trkpt>
      <trkpt lat="44.12717" lon="3.19496">
        <ele>539.6</ele>
        <time>2024-12-04T14:43:09.000Z</time>
      </trkpt>
      <trkpt lat="44.12699" lon="3.1949">
        <ele>536.2</ele>
        <time>2024-12-04T14:43:12.000Z</time>
      </trkpt>
      <trkpt lat="44.12687" lon="3.19487">
        <ele>533.9</ele>
        <time>2024-12-04T14:43:14.000Z</time>
      </trkpt>
      <trkpt lat="44.12676" lon="3.19489">
        <ele>531.6</ele>
        <time>2024-12-04T14:43:16.000Z</time>
      </trkpt>
      <trkpt lat="44.12665" lon="3.19487">
        <ele>528.3</ele>
        <time>2024-12-04T14:43:19.000Z</time>
      </trkpt>
      <trkpt lat="44.12624" lon="3.19482">
        <ele>522</ele>
        <time>2024-12-04T14:43:25.000Z</time>
      </trkpt>
      <trkpt lat="44.12602" lon="3.19482">
        <ele>517.9</ele>
        <time>2024-12-04T14:43:30.000Z</time>
      </trkpt>
      <trkpt lat="44.1259" lon="3.19484">
        <ele>515.3</ele>
        <time>2024-12-04T14:43:33.000Z</time>
      </trkpt>
      <trkpt lat="44.1258" lon="3.19482">
        <ele>511.4</ele>
        <time>2024-12-04T14:43:39.000Z</time>
      </trkpt>
      <trkpt lat="44.12572" lon="3.19488">
        <ele>508.2</ele>
        <time>2024-12-04T14:43:47.000Z</time>
      </trkpt>
      <trkpt lat="44.12573" lon="3.195">
        <ele>501.7</ele>
        <time>2024-12-04T14:44:50.000Z</time>
      </trkpt>
      <trkpt lat="44.12567" lon="3.19513">
        <ele>502.4</ele>
        <time>2024-12-04T14:44:57.000Z</time>
      </trkpt>
      <trkpt lat="44.12561" lon="3.19523">
        <ele>502.7</ele>
        <time>2024-12-04T14:45:01.000Z</time>
      </trkpt>
      <trkpt lat="44.12555" lon="3.19536">
        <ele>502.8</ele>
        <time>2024-12-04T14:45:05.000Z</time>
      </trkpt>
      <trkpt lat="44.12548" lon="3.19547">
        <ele>502.6</ele>
        <time>2024-12-04T14:45:08.000Z</time>
      </trkpt>
      <trkpt lat="44.12537" lon="3.19557">
        <ele>502.4</ele>
        <time>2024-12-04T14:45:11.000Z</time>
      </trkpt>
      <trkpt lat="44.12531" lon="3.19568">
        <ele>502</ele>
        <time>2024-12-04T14:45:13.000Z</time>
      </trkpt>
      <trkpt lat="44.12524" lon="3.19579">
        <ele>501.2</ele>
        <time>2024-12-04T14:45:15.000Z</time>
      </trkpt>
      <trkpt lat="44.12515" lon="3.1959">
        <ele>500.4</ele>
        <time>2024-12-04T14:45:17.000Z</time>
      </trkpt>
      <trkpt lat="44.12502" lon="3.19598">
        <ele>499.4</ele>
        <time>2024-12-04T14:45:19.000Z</time>
      </trkpt>
      <trkpt lat="44.12488" lon="3.19605">
        <ele>498.5</ele>
        <time>2024-12-04T14:45:21.000Z</time>
      </trkpt>
      <trkpt lat="44.12477" lon="3.19609">
        <ele>497.6</ele>
        <time>2024-12-04T14:45:23.000Z</time>
      </trkpt>
      <trkpt lat="44.12466" lon="3.19611">
        <ele>496.8</ele>
        <time>2024-12-04T14:45:25.000Z</time>
      </trkpt>
      <trkpt lat="44.12456" lon="3.19617">
        <ele>495.9</ele>
        <time>2024-12-04T14:45:27.000Z</time>
      </trkpt>
      <trkpt lat="44.12445" lon="3.19628">
        <ele>495</ele>
        <time>2024-12-04T14:45:29.000Z</time>
      </trkpt>
      <trkpt lat="44.12435" lon="3.19634">
        <ele>493.9</ele>
        <time>2024-12-04T14:45:31.000Z</time>
      </trkpt>
      <trkpt lat="44.12427" lon="3.19642">
        <ele>492.6</ele>
        <time>2024-12-04T14:45:33.000Z</time>
      </trkpt>
      <trkpt lat="44.12418" lon="3.19646">
        <ele>491</ele>
        <time>2024-12-04T14:45:35.000Z</time>
      </trkpt>
      <trkpt lat="44.12409" lon="3.19647">
        <ele>489.4</ele>
        <time>2024-12-04T14:45:37.000Z</time>
      </trkpt>
      <trkpt lat="44.12398" lon="3.19652">
        <ele>487.8</ele>
        <time>2024-12-04T14:45:39.000Z</time>
      </trkpt>
      <trkpt lat="44.12386" lon="3.19655">
        <ele>486.2</ele>
        <time>2024-12-04T14:45:41.000Z</time>
      </trkpt>
      <trkpt lat="44.12376" lon="3.19658">
        <ele>484.7</ele>
        <time>2024-12-04T14:45:43.000Z</time>
      </trkpt>
      <trkpt lat="44.12365" lon="3.19656">
        <ele>483.2</ele>
        <time>2024-12-04T14:45:45.000Z</time>
      </trkpt>
      <trkpt lat="44.12354" lon="3.19659">
        <ele>481.3</ele>
        <time>2024-12-04T14:45:48.000Z</time>
      </trkpt>
      <trkpt lat="44.12347" lon="3.19672">
        <ele>479.5</ele>
        <time>2024-12-04T14:45:51.000Z</time>
      </trkpt>
      <trkpt lat="44.12347" lon="3.19685">
        <ele>478.4</ele>
        <time>2024-12-04T14:45:53.000Z</time>
      </trkpt>
      <trkpt lat="44.1235" lon="3.197">
        <ele>476.9</ele>
        <time>2024-12-04T14:45:56.000Z</time>
      </trkpt>
      <trkpt lat="44.12346" lon="3.19712">
        <ele>475.6</ele>
        <time>2024-12-04T14:45:59.000Z</time>
      </trkpt>
      <trkpt lat="44.12343" lon="3.19725">
        <ele>474.3</ele>
        <time>2024-12-04T14:46:02.000Z</time>
      </trkpt>
      <trkpt lat="44.12342" lon="3.19738">
        <ele>472.7</ele>
        <time>2024-12-04T14:46:05.000Z</time>
      </trkpt>
      <trkpt lat="44.12338" lon="3.19754">
        <ele>470.8</ele>
        <time>2024-12-04T14:46:08.000Z</time>
      </trkpt>
      <trkpt lat="44.12345" lon="3.19766">
        <ele>469.1</ele>
        <time>2024-12-04T14:46:11.000Z</time>
      </trkpt>
      <trkpt lat="44.12352" lon="3.19776">
        <ele>467.8</ele>
        <time>2024-12-04T14:46:13.000Z</time>
      </trkpt>
      <trkpt lat="44.12358" lon="3.19791">
        <ele>465.5</ele>
        <time>2024-12-04T14:46:16.000Z</time>
      </trkpt>
      <trkpt lat="44.12367" lon="3.19801">
        <ele>463.1</ele>
        <time>2024-12-04T14:46:19.000Z</time>
      </trkpt>
      <trkpt lat="44.12376" lon="3.19797">
        <ele>460.8</ele>
        <time>2024-12-04T14:46:22.000Z</time>
      </trkpt>
      <trkpt lat="44.12387" lon="3.19801">
        <ele>458.3</ele>
        <time>2024-12-04T14:46:25.000Z</time>
      </trkpt>
      <trkpt lat="44.12392" lon="3.19812">
        <ele>456.5</ele>
        <time>2024-12-04T14:46:27.000Z</time>
      </trkpt>
      <trkpt lat="44.12377" lon="3.19813">
        <ele>448.6</ele>
        <time>2024-12-04T14:46:36.000Z</time>
      </trkpt>
      <trkpt lat="44.12366" lon="3.19819">
        <ele>445.5</ele>
        <time>2024-12-04T14:46:39.000Z</time>
      </trkpt>
      <trkpt lat="44.12357" lon="3.19823">
        <ele>442.4</ele>
        <time>2024-12-04T14:46:42.000Z</time>
      </trkpt>
      <trkpt lat="44.12345" lon="3.19818">
        <ele>437.9</ele>
        <time>2024-12-04T14:46:46.000Z</time>
      </trkpt>
      <trkpt lat="44.12333" lon="3.19814">
        <ele>434.6</ele>
        <time>2024-12-04T14:46:49.000Z</time>
      </trkpt>
      <trkpt lat="44.12321" lon="3.19827">
        <ele>429.9</ele>
        <time>2024-12-04T14:46:53.000Z</time>
      </trkpt>
      <trkpt lat="44.12316" lon="3.19841">
        <ele>422</ele>
        <time>2024-12-04T14:47:00.000Z</time>
      </trkpt>
      <trkpt lat="44.12305" lon="3.19831">
        <ele>418.6</ele>
        <time>2024-12-04T14:47:05.000Z</time>
      </trkpt>
      <trkpt lat="44.12296" lon="3.1983">
        <ele>416.6</ele>
        <time>2024-12-04T14:47:07.000Z</time>
      </trkpt>
      <trkpt lat="44.12289" lon="3.1982">
        <ele>410.2</ele>
        <time>2024-12-04T14:47:13.000Z</time>
      </trkpt>
    </trkseg>
  </trk>
</gpx>